Time;durP1;ratioP1;P1;durP2;ratioP2;P2;SDS_P1;SDS_P2;PMS_P1;PMS_P2;Temp;Humidity;BMP_temperature;BMP_pressure;BME280_temperature;BME280_humidity;BME280_pressure;Samples;Min_cycle;Max_cycle;Signal;HPM_P1;HPM_P2
2021/08/08 00:01:23;;;;;;;4.55;3.13;;;;;;;;;;5070477;28;20438;-70
2021/08/08 00:03:49;;;;;;;7.60;3.10;;;;;;;;;;5066110;28;20469;-69
2021/08/08 00:06:16;;;;;;;5.32;2.92;;;;;;;;;;5066867;28;20645;-69
2021/08/08 00:08:42;;;;;;;7.72;3.15;;;;;;;;;;5068330;28;20036;-69
2021/08/08 00:11:08;;;;;;;4.28;3.05;;;;;;;;;;5068160;28;20107;-69
2021/08/08 00:13:34;;;;;;;4.32;2.83;;;;;;;;;;5067128;28;20036;-70
2021/08/08 00:16:01;;;;;;;4.68;2.95;;;;;;;;;;5069900;28;20028;-70
2021/08/08 00:18:27;;;;;;;6.82;3.47;;;;;;;;;;5063895;28;20070;-70
2021/08/08 00:20:53;;;;;;;3.97;3.03;;;;;;;;;;5068759;28;20055;-69
2021/08/08 00:23:19;;;;;;;4.38;3.40;;;;;;;;;;5066556;28;20099;-69
2021/08/08 00:25:46;;;;;;;5.35;3.55;;;;;;;;;;5064126;28;20032;-70
2021/08/08 00:28:12;;;;;;;6.28;3.40;;;;;;;;;;5067984;28;20020;-69
2021/08/08 00:30:38;;;;;;;5.38;3.88;;;;;;;;;;5063451;28;20032;-71
2021/08/08 00:33:04;;;;;;;6.68;3.10;;;;;;;;;;5067582;28;20024;-71
2021/08/08 00:35:30;;;;;;;6.57;3.58;;;;;;;;;;5065607;28;20631;-69
2021/08/08 00:37:58;;;;;;;4.10;3.00;;;;;;;;;;5066709;28;20078;-71
2021/08/08 00:40:24;;;;;;;5.50;3.30;;;;;;;;;;5066475;28;20021;-69
2021/08/08 00:42:50;;;;;;;5.00;3.53;;;;;;;;;;5068550;28;20025;-69
2021/08/08 00:45:18;;;;;;;5.88;3.35;;;;;;;;;;5066683;28;20028;-70
2021/08/08 00:47:45;;;;;;;5.82;3.30;;;;;;;;;;5069153;28;20578;-70
2021/08/08 00:50:12;;;;;;;5.75;3.60;;;;;;;;;;5074551;28;20165;-70
2021/08/08 00:52:38;;;;;;;6.82;3.72;;;;;;;;;;5063430;28;20044;-70
2021/08/08 00:55:05;;;;;;;5.55;3.20;;;;;;;;;;5065396;28;20063;-70
2021/08/08 00:57:31;;;;;;;7.07;3.28;;;;;;;;;;5063708;28;20024;-69
2021/08/08 00:59:57;;;;;;;7.10;3.35;;;;;;;;;;5067197;28;20020;-70
2021/08/08 01:02:23;;;;;;;5.15;3.17;;;;;;;;;;5065075;28;20078;-70
2021/08/08 01:05:07;;;;;;;7.55;3.20;;;;;;;;;;5065214;28;20039;-69
2021/08/08 01:07:46;;;;;;;6.68;3.47;;;;;;;;;;5063511;28;20013;-69
2021/08/08 01:10:12;;;;;;;6.82;3.17;;;;;;;;;;5069697;28;20104;-70
2021/08/08 01:12:39;;;;;;;7.32;3.40;;;;;;;;;;5071860;28;20131;-69
2021/08/08 01:15:06;;;;;;;6.15;3.10;;;;;;;;;;5066228;28;20043;-70
2021/08/08 01:17:32;;;;;;;5.18;2.90;;;;;;;;;;5071997;28;20049;-70
2021/08/08 01:20:04;;;;;;;9.02;3.30;;;;;;;;;;5071856;28;20035;-69
2021/08/08 01:22:31;;;;;;;6.70;3.15;;;;;;;;;;5073845;28;20028;-70
2021/08/08 01:24:58;;;;;;;3.72;2.95;;;;;;;;;;5065959;28;20036;-70
2021/08/08 01:27:25;;;;;;;6.28;3.47;;;;;;;;;;5073919;28;20020;-69
2021/08/08 01:29:54;;;;;;;4.28;3.08;;;;;;;;;;5072827;28;20121;-69
2021/08/08 01:32:21;;;;;;;3.97;2.75;;;;;;;;;;5067215;28;20052;-70
2021/08/08 01:34:47;;;;;;;7.18;2.72;;;;;;;;;;5074849;28;20020;-70
2021/08/08 01:37:17;;;;;;;8.95;3.00;;;;;;;;;;5071117;28;20507;-69
2021/08/08 01:39:46;;;;;;;5.20;2.72;;;;;;;;;;5066228;28;20024;-69
2021/08/08 01:42:12;;;;;;;6.80;2.85;;;;;;;;;;5069584;28;20035;-70
2021/08/08 01:44:43;;;;;;;5.05;3.33;;;;;;;;;;5065289;28;20480;-70
2021/08/08 01:47:12;;;;;;;4.00;3.20;;;;;;;;;;5067720;28;20028;-71
2021/08/08 01:49:38;;;;;;;6.82;3.55;;;;;;;;;;5074900;28;20039;-70
2021/08/08 01:52:06;;;;;;;6.32;3.78;;;;;;;;;;5074707;28;20028;-70
2021/08/08 01:54:32;;;;;;;6.75;3.15;;;;;;;;;;5076342;28;20035;-70
2021/08/08 01:56:58;;;;;;;3.97;3.00;;;;;;;;;;5075241;28;20024;-71
2021/08/08 01:59:24;;;;;;;5.57;2.75;;;;;;;;;;5072459;28;20633;-69
2021/08/08 02:01:51;;;;;;;5.53;3.03;;;;;;;;;;5073541;28;20032;-70
2021/08/08 02:04:18;;;;;;;5.20;2.83;;;;;;;;;;5075344;28;20036;-71
2021/08/08 02:06:44;;;;;;;5.68;2.85;;;;;;;;;;5070167;28;20414;-70
2021/08/08 02:09:10;;;;;;;4.47;3.10;;;;;;;;;;5079805;28;20478;-71
2021/08/08 02:11:37;;;;;;;6.35;2.38;;;;;;;;;;5075740;28;20020;-69
2021/08/08 02:14:04;;;;;;;4.80;3.20;;;;;;;;;;5071627;28;20055;-70
2021/08/08 02:16:31;;;;;;;6.07;2.78;;;;;;;;;;5070189;28;20478;-70
2021/08/08 02:18:57;;;;;;;4.32;2.85;;;;;;;;;;5074698;28;20051;-69
2021/08/08 02:21:23;;;;;;;7.40;3.15;;;;;;;;;;5074163;28;20035;-69
2021/08/08 02:23:50;;;;;;;7.72;3.15;;;;;;;;;;5076975;28;20035;-70
2021/08/08 02:26:16;;;;;;;7.60;3.35;;;;;;;;;;5073805;28;20566;-72
2021/08/08 02:28:42;;;;;;;7.07;3.15;;;;;;;;;;5074079;28;20499;-69
2021/08/08 02:31:08;;;;;;;7.20;3.10;;;;;;;;;;5074599;28;20590;-71
2021/08/08 02:33:35;;;;;;;5.00;2.90;;;;;;;;;;5071212;28;20036;-69
2021/08/08 02:36:01;;;;;;;5.43;3.05;;;;;;;;;;5069891;28;20108;-71
2021/08/08 02:38:27;;;;;;;6.25;2.80;;;;;;;;;;5072620;28;20025;-70
2021/08/08 02:40:54;;;;;;;7.25;3.22;;;;;;;;;;5074261;28;20078;-69
2021/08/08 02:43:20;;;;;;;4.70;3.30;;;;;;;;;;5073285;28;20069;-70
2021/08/08 02:45:49;;;;;;;6.03;2.97;;;;;;;;;;5071940;28;20039;-69
2021/08/08 02:48:16;;;;;;;5.22;3.10;;;;;;;;;;5072508;28;20012;-69
2021/08/08 02:50:42;;;;;;;5.47;2.70;;;;;;;;;;5075346;28;20035;-69
2021/08/08 02:53:08;;;;;;;5.70;2.90;;;;;;;;;;5075787;28;20028;-69
2021/08/08 02:55:34;;;;;;;6.30;2.90;;;;;;;;;;5072149;28;20013;-70
2021/08/08 02:58:00;;;;;;;6.35;2.97;;;;;;;;;;5072309;28;20100;-70
2021/08/08 03:00:27;;;;;;;6.90;2.95;;;;;;;;;;5069645;28;20024;-70
2021/08/08 03:02:53;;;;;;;5.75;3.10;;;;;;;;;;5072414;28;20655;-69
2021/08/08 03:05:19;;;;;;;6.28;3.28;;;;;;;;;;5075817;28;20032;-70
2021/08/08 03:07:46;;;;;;;10.70;3.10;;;;;;;;;;5082629;28;20028;-69
2021/08/08 03:10:13;;;;;;;7.13;2.85;;;;;;;;;;5083869;28;20020;-69
2021/08/08 03:12:39;;;;;;;5.97;2.70;;;;;;;;;;5083837;28;20028;-72
2021/08/08 03:15:06;;;;;;;5.43;2.92;;;;;;;;;;5083571;28;20043;-69
2021/08/08 03:17:32;;;;;;;5.40;2.70;;;;;;;;;;5082711;28;20035;-69
2021/08/08 03:19:58;;;;;;;7.47;3.15;;;;;;;;;;5083821;28;20032;-71
2021/08/08 03:22:24;;;;;;;5.18;2.92;;;;;;;;;;5084222;28;20031;-70
2021/08/08 03:24:51;;;;;;;6.03;2.83;;;;;;;;;;5083708;28;20020;-71
2021/08/08 03:27:17;;;;;;;5.03;2.67;;;;;;;;;;5080201;28;20028;-70
2021/08/08 03:29:43;;;;;;;5.35;2.88;;;;;;;;;;5077772;28;20032;-69
2021/08/08 03:32:09;;;;;;;7.20;2.85;;;;;;;;;;5078297;28;20027;-70
2021/08/08 03:34:35;;;;;;;6.13;2.92;;;;;;;;;;5083864;28;20020;-70
2021/08/08 03:37:01;;;;;;;3.45;2.40;;;;;;;;;;5083337;28;20028;-70
2021/08/08 03:39:28;;;;;;;4.18;2.45;;;;;;;;;;5081900;28;20016;-69
2021/08/08 03:41:54;;;;;;;4.20;2.55;;;;;;;;;;5083701;28;20099;-69
2021/08/08 03:44:21;;;;;;;3.85;2.50;;;;;;;;;;5080327;28;20509;-69
2021/08/08 03:46:47;;;;;;;5.65;2.60;;;;;;;;;;5070136;28;20024;-69
2021/08/08 03:49:14;;;;;;;4.97;2.60;;;;;;;;;;5081505;28;20028;-69
2021/08/08 03:51:41;;;;;;;5.32;2.55;;;;;;;;;;5083481;28;20571;-70
2021/08/08 03:54:07;;;;;;;4.22;2.45;;;;;;;;;;5083474;28;20016;-69
2021/08/08 03:56:36;;;;;;;4.03;2.60;;;;;;;;;;5080715;28;20073;-69
2021/08/08 03:59:03;;;;;;;5.72;2.78;;;;;;;;;;5081041;28;20020;-69
2021/08/08 04:01:29;;;;;;;7.43;2.65;;;;;;;;;;5083129;28;20024;-70
2021/08/08 04:03:56;;;;;;;6.75;2.90;;;;;;;;;;5083296;28;20024;-70
2021/08/08 04:06:22;;;;;;;5.47;2.78;;;;;;;;;;5082578;28;20503;-69
2021/08/08 04:08:48;;;;;;;7.45;2.95;;;;;;;;;;5078947;28;20032;-70
2021/08/08 04:11:15;;;;;;;6.43;2.63;;;;;;;;;;5068251;28;20025;-69
2021/08/08 04:13:41;;;;;;;6.25;2.83;;;;;;;;;;5075420;28;20416;-70
2021/08/08 04:16:07;;;;;;;9.48;2.92;;;;;;;;;;5070722;28;20020;-72
2021/08/08 04:18:33;;;;;;;6.30;2.70;;;;;;;;;;5074085;28;20044;-70
2021/08/08 04:21:00;;;;;;;4.90;2.47;;;;;;;;;;5084136;28;20020;-70
2021/08/08 04:23:26;;;;;;;3.95;2.63;;;;;;;;;;5074042;28;20038;-73
2021/08/08 04:25:52;;;;;;;4.57;2.70;;;;;;;;;;5073705;28;20035;-71
2021/08/08 04:28:19;;;;;;;4.35;3.13;;;;;;;;;;5070791;28;20485;-71
2021/08/08 04:30:45;;;;;;;6.90;2.90;;;;;;;;;;5072517;28;20035;-70
2021/08/08 04:33:11;;;;;;;7.00;3.20;;;;;;;;;;5068687;28;20031;-71
2021/08/08 04:35:38;;;;;;;7.05;2.92;;;;;;;;;;5075321;28;20020;-68
2021/08/08 04:38:04;;;;;;;7.47;3.05;;;;;;;;;;5072800;28;20032;-69
2021/08/08 04:40:31;;;;;;;6.05;3.03;;;;;;;;;;5067979;28;20020;-69
2021/08/08 04:42:58;;;;;;;3.88;2.20;;;;;;;;;;5074038;28;20028;-69
2021/08/08 04:45:24;;;;;;;5.03;2.22;;;;;;;;;;5078560;28;20036;-69
2021/08/08 04:47:51;;;;;;;3.58;2.55;;;;;;;;;;5073360;28;20028;-69
2021/08/08 04:50:17;;;;;;;4.25;2.47;;;;;;;;;;5070349;28;20019;-68
2021/08/08 04:52:47;;;;;;;9.05;2.70;;;;;;;;;;5070230;28;20024;-69
2021/08/08 04:55:14;;;;;;;8.77;2.90;;;;;;;;;;5069787;28;20089;-69
2021/08/08 04:57:40;;;;;;;5.40;2.70;;;;;;;;;;5068591;28;20465;-69
2021/08/08 05:00:07;;;;;;;6.40;2.72;;;;;;;;;;5073085;28;20031;-69
2021/08/08 05:02:33;;;;;;;8.13;2.70;;;;;;;;;;5067345;28;20170;-69
2021/08/08 05:04:59;;;;;;;4.22;2.90;;;;;;;;;;5073003;28;20028;-69
2021/08/08 05:07:26;;;;;;;5.10;2.60;;;;;;;;;;5070326;28;20028;-69
2021/08/08 05:09:52;;;;;;;5.28;2.65;;;;;;;;;;5072952;28;20131;-69
2021/08/08 05:12:18;;;;;;;4.72;2.95;;;;;;;;;;5070847;28;20349;-69
2021/08/08 05:14:44;;;;;;;3.95;2.70;;;;;;;;;;5071020;28;20054;-69
2021/08/08 05:17:10;;;;;;;6.32;2.70;;;;;;;;;;5073272;28;20016;-69
2021/08/08 05:19:36;;;;;;;5.60;2.45;;;;;;;;;;5068072;28;20071;-69
2021/08/08 05:22:03;;;;;;;8.55;2.80;;;;;;;;;;5074176;28;20024;-69
2021/08/08 05:24:29;;;;;;;3.25;2.35;;;;;;;;;;5083432;28;20040;-69
2021/08/08 05:26:56;;;;;;;4.35;2.20;;;;;;;;;;5083200;28;20032;-69
2021/08/08 05:29:24;;;;;;;4.75;2.85;;;;;;;;;;5082788;28;20115;-69
2021/08/08 05:31:50;;;;;;;8.73;2.85;;;;;;;;;;5084459;28;20020;-69
2021/08/08 05:34:16;;;;;;;6.28;4.45;;;;;;;;;;5084064;28;20107;-69
2021/08/08 05:36:42;;;;;;;9.57;5.63;;;;;;;;;;5084966;28;20027;-69
2021/08/08 05:39:08;;;;;;;6.57;4.53;;;;;;;;;;5082686;28;20036;-69
2021/08/08 05:41:35;;;;;;;9.93;4.90;;;;;;;;;;5084130;28;20027;-69
2021/08/08 05:44:01;;;;;;;6.45;3.70;;;;;;;;;;5084044;28;20028;-69
2021/08/08 05:46:27;;;;;;;6.40;3.00;;;;;;;;;;5084424;28;20026;-69
2021/08/08 05:48:53;;;;;;;4.93;2.97;;;;;;;;;;5084798;28;20024;-69
2021/08/08 05:51:19;;;;;;;4.90;3.30;;;;;;;;;;5082375;28;20020;-69
2021/08/08 05:53:45;;;;;;;7.35;2.90;;;;;;;;;;5083957;28;20023;-69
2021/08/08 05:56:11;;;;;;;8.10;3.28;;;;;;;;;;5084089;28;20038;-69
2021/08/08 05:58:38;;;;;;;5.07;2.72;;;;;;;;;;5084376;28;20423;-69
2021/08/08 06:01:04;;;;;;;4.05;2.47;;;;;;;;;;5083964;28;20522;-69
2021/08/08 06:03:30;;;;;;;4.75;2.58;;;;;;;;;;5082779;28;20528;-69
2021/08/08 06:05:56;;;;;;;7.47;2.70;;;;;;;;;;5083884;28;20421;-69
2021/08/08 06:08:22;;;;;;;5.90;2.28;;;;;;;;;;5083802;28;20370;-69
2021/08/08 06:10:49;;;;;;;5.47;3.55;;;;;;;;;;5083874;28;20528;-69
2021/08/08 06:13:16;;;;;;;6.72;2.83;;;;;;;;;;5083607;28;20028;-69
2021/08/08 06:15:42;;;;;;;5.03;3.10;;;;;;;;;;5084565;28;20088;-69
2021/08/08 06:18:09;;;;;;;7.18;3.30;;;;;;;;;;5082159;28;20044;-69
2021/08/08 06:20:35;;;;;;;7.45;3.13;;;;;;;;;;5083868;28;20099;-69
2021/08/08 06:23:01;;;;;;;5.22;3.08;;;;;;;;;;5083580;28;20478;-69
2021/08/08 06:25:28;;;;;;;5.70;2.95;;;;;;;;;;5082062;28;21170;-69
2021/08/08 06:27:54;;;;;;;5.18;2.53;;;;;;;;;;5083824;28;20089;-69
2021/08/08 06:30:20;;;;;;;5.53;2.80;;;;;;;;;;5082536;28;20274;-69
2021/08/08 06:32:46;;;;;;;4.72;2.95;;;;;;;;;;5084309;28;20070;-69
2021/08/08 06:35:12;;;;;;;4.65;2.67;;;;;;;;;;5087514;28;20046;-69
2021/08/08 06:37:43;;;;;;;5.82;3.20;;;;;;;;;;5087223;28;20027;-69
2021/08/08 06:40:10;;;;;;;6.22;3.38;;;;;;;;;;5085680;28;20028;-69
2021/08/08 06:42:36;;;;;;;7.15;3.40;;;;;;;;;;5087273;28;20027;-69
2021/08/08 06:45:02;;;;;;;5.82;3.65;;;;;;;;;;5086074;28;20563;-69
2021/08/08 06:47:28;;;;;;;5.35;3.80;;;;;;;;;;5085720;28;20495;-69
2021/08/08 06:49:54;;;;;;;3.63;2.75;;;;;;;;;;5087467;28;20028;-69
2021/08/08 06:52:20;;;;;;;3.88;2.45;;;;;;;;;;5086940;28;20470;-69
2021/08/08 06:54:46;;;;;;;7.20;3.33;;;;;;;;;;5087134;28;20020;-69
2021/08/08 06:57:22;;;;;;;5.57;2.95;;;;;;;;;;5085450;28;20094;-70
2021/08/08 06:59:48;;;;;;;4.53;2.88;;;;;;;;;;5086890;28;20027;-69
2021/08/08 07:02:14;;;;;;;7.43;3.55;;;;;;;;;;5087023;28;20032;-70
2021/08/08 07:04:40;;;;;;;6.97;3.25;;;;;;;;;;5086770;28;20051;-69
2021/08/08 07:07:06;;;;;;;4.32;3.40;;;;;;;;;;5085016;28;20020;-69
2021/08/08 07:09:32;;;;;;;5.53;3.30;;;;;;;;;;5085362;28;20028;-69
2021/08/08 07:11:58;;;;;;;5.75;3.40;;;;;;;;;;5086677;28;20023;-70
2021/08/08 07:14:25;;;;;;;6.55;3.20;;;;;;;;;;5086472;28;20090;-70
2021/08/08 07:16:52;;;;;;;6.30;3.38;;;;;;;;;;5086722;28;20032;-69
2021/08/08 07:19:19;;;;;;;9.18;3.63;;;;;;;;;;5084825;28;20032;-69
2021/08/08 07:21:45;;;;;;;8.40;3.78;;;;;;;;;;5084754;28;20032;-69
2021/08/08 07:24:11;;;;;;;6.25;3.75;;;;;;;;;;5086439;28;20024;-69
2021/08/08 07:26:38;;;;;;;5.88;3.65;;;;;;;;;;5086443;28;20522;-70
2021/08/08 07:29:04;;;;;;;5.53;3.58;;;;;;;;;;5086157;28;20017;-70
2021/08/08 07:31:30;;;;;;;6.72;3.38;;;;;;;;;;5079876;28;20032;-70
2021/08/08 07:33:56;;;;;;;5.57;3.53;;;;;;;;;;5071023;28;20035;-71
2021/08/08 07:36:22;;;;;;;7.10;3.22;;;;;;;;;;5081077;28;20031;-70
2021/08/08 07:38:48;;;;;;;5.88;3.45;;;;;;;;;;5086129;28;20028;-69
2021/08/08 07:41:15;;;;;;;5.70;4.30;;;;;;;;;;5083175;28;20012;-70
2021/08/08 07:43:41;;;;;;;6.57;3.88;;;;;;;;;;5085279;28;20024;-69
2021/08/08 07:46:07;;;;;;;6.25;3.05;;;;;;;;;;5085073;28;20039;-70
2021/08/08 07:48:33;;;;;;;10.00;3.90;;;;;;;;;;5084282;28;20019;-69
2021/08/08 07:50:59;;;;;;;5.60;3.75;;;;;;;;;;5083877;28;20110;-70
2021/08/08 07:53:26;;;;;;;5.18;3.47;;;;;;;;;;5084104;28;20016;-70
2021/08/08 07:55:55;;;;;;;5.65;3.72;;;;;;;;;;5077858;28;20365;-70
2021/08/08 07:58:21;;;;;;;5.70;3.72;;;;;;;;;;5082480;28;20100;-70
2021/08/08 08:00:47;;;;;;;6.72;3.78;;;;;;;;;;5085561;28;20035;-69
2021/08/08 08:03:13;;;;;;;6.22;3.65;;;;;;;;;;5085342;28;20012;-69
2021/08/08 08:05:40;;;;;;;8.15;3.45;;;;;;;;;;5085040;28;20039;-70
2021/08/08 08:08:06;;;;;;;8.60;3.30;;;;;;;;;;5083825;28;20511;-69
2021/08/08 08:10:33;;;;;;;3.83;2.90;;;;;;;;;;5085446;28;20070;-70
2021/08/08 08:13:00;;;;;;;4.65;3.00;;;;;;;;;;5084964;28;20273;-69
2021/08/08 08:15:28;;;;;;;5.38;3.40;;;;;;;;;;5083914;28;20027;-70
2021/08/08 08:17:54;;;;;;;4.60;3.25;;;;;;;;;;5085004;28;20054;-69
2021/08/08 08:20:20;;;;;;;6.43;3.17;;;;;;;;;;5085275;28;20020;-69
2021/08/08 08:22:47;;;;;;;6.32;3.22;;;;;;;;;;5084779;28;20115;-70
2021/08/08 08:25:13;;;;;;;5.68;3.63;;;;;;;;;;5085376;28;20607;-69
2021/08/08 08:27:39;;;;;;;4.85;3.10;;;;;;;;;;5083304;28;20135;-69
2021/08/08 08:30:06;;;;;;;8.23;3.25;;;;;;;;;;5084769;28;20035;-69
2021/08/08 08:32:33;;;;;;;7.20;3.30;;;;;;;;;;5085220;28;20020;-69
2021/08/08 08:35:02;;;;;;;4.78;3.20;;;;;;;;;;5083355;28;20375;-69
2021/08/08 08:37:28;;;;;;;7.32;3.53;;;;;;;;;;5084629;28;20503;-69
2021/08/08 08:39:54;;;;;;;6.13;3.17;;;;;;;;;;5084881;28;20028;-69
2021/08/08 08:42:22;;;;;;;7.90;3.00;;;;;;;;;;5084861;28;20476;-69
2021/08/08 08:44:48;;;;;;;5.53;3.33;;;;;;;;;;5083429;28;20016;-70
2021/08/08 08:47:15;;;;;;;5.18;2.80;;;;;;;;;;5084693;28;20491;-69
2021/08/08 08:49:46;;;;;;;7.78;2.92;;;;;;;;;;5084723;28;20040;-69
2021/08/08 08:52:12;;;;;;;6.53;3.22;;;;;;;;;;5083267;28;20047;-69
2021/08/08 08:54:39;;;;;;;4.35;3.03;;;;;;;;;;5084651;28;20383;-69
2021/08/08 08:57:06;;;;;;;9.52;3.45;;;;;;;;;;5084015;28;20024;-69
2021/08/08 08:59:33;;;;;;;4.53;3.00;;;;;;;;;;5084592;28;20133;-71
2021/08/08 09:01:59;;;;;;;7.30;3.13;;;;;;;;;;5084381;28;20404;-69
2021/08/08 09:04:25;;;;;;;8.10;3.25;;;;;;;;;;5082886;28;20516;-69
2021/08/08 09:06:52;;;;;;;7.47;3.00;;;;;;;;;;5084758;28;20085;-70
2021/08/08 09:09:18;;;;;;;5.22;3.00;;;;;;;;;;5084461;28;20157;-69
2021/08/08 09:11:45;;;;;;;5.57;3.10;;;;;;;;;;5084119;28;20390;-69
2021/08/08 09:14:17;;;;;;;6.63;3.45;;;;;;;;;;5082568;28;20028;-69
2021/08/08 09:16:45;;;;;;;5.00;2.95;;;;;;;;;;5084180;28;20017;-70
2021/08/08 09:19:19;;;;;;;5.80;3.05;;;;;;;;;;5084668;28;20476;-70
2021/08/08 09:21:45;;;;;;;5.72;2.88;;;;;;;;;;5083957;28;20076;-69
2021/08/08 09:24:21;;;;;;;5.63;2.78;;;;;;;;;;5082132;28;20026;-70
2021/08/08 09:26:47;;;;;;;7.13;2.78;;;;;;;;;;5084291;28;20040;-69
2021/08/08 09:29:14;;;;;;;4.57;2.88;;;;;;;;;;5084080;28;20383;-69
2021/08/08 09:31:41;;;;;;;6.10;3.25;;;;;;;;;;5084311;28;20436;-69
2021/08/08 09:34:07;;;;;;;6.25;3.25;;;;;;;;;;5084007;28;20047;-69
2021/08/08 09:36:40;;;;;;;3.75;2.85;;;;;;;;;;5082556;28;20020;-71
2021/08/08 09:39:06;;;;;;;5.75;2.58;;;;;;;;;;5083877;28;20736;-69
2021/08/08 09:41:32;;;;;;;10.43;3.75;;;;;;;;;;5084324;28;20032;-69
2021/08/08 09:44:05;;;;;;;5.85;3.00;;;;;;;;;;5083896;28;20376;-69
2021/08/08 09:46:32;;;;;;;4.70;3.60;;;;;;;;;;5069049;28;20028;-69
2021/08/08 09:49:06;;;;;;;7.22;3.70;;;;;;;;;;5084161;28;20032;-71
2021/08/08 09:51:32;;;;;;;6.15;3.90;;;;;;;;;;5084030;28;20490;-69
2021/08/08 09:53:58;;;;;;;5.18;3.40;;;;;;;;;;5084477;28;20032;-69
2021/08/08 09:56:24;;;;;;;4.22;2.92;;;;;;;;;;5083787;28;20238;-69
2021/08/08 09:58:50;;;;;;;10.82;3.92;;;;;;;;;;5082297;28;20043;-70
2021/08/08 10:01:16;;;;;;;7.53;4.05;;;;;;;;;;5083583;28;20104;-69
2021/08/08 10:03:43;;;;;;;5.63;3.17;;;;;;;;;;5082577;28;20101;-69
2021/08/08 10:06:13;;;;;;;7.55;3.53;;;;;;;;;;5082496;28;20384;-70
2021/08/08 10:08:39;;;;;;;8.68;3.72;;;;;;;;;;5086467;28;20024;-69
2021/08/08 10:11:05;;;;;;;3.90;3.28;;;;;;;;;;5088272;28;20031;-70
2021/08/08 10:13:41;;;;;;;7.50;3.40;;;;;;;;;;5087417;28;20519;-69
2021/08/08 10:16:10;;;;;;;5.18;3.22;;;;;;;;;;5087652;28;20467;-69
2021/08/08 10:18:40;;;;;;;8.00;3.50;;;;;;;;;;5087557;28;20051;-70
2021/08/08 10:21:07;;;;;;;5.63;3.63;;;;;;;;;;5086228;28;20121;-69
2021/08/08 10:23:35;;;;;;;7.63;3.33;;;;;;;;;;5087720;28;20020;-69
2021/08/08 10:26:01;;;;;;;5.82;3.28;;;;;;;;;;5087339;28;20120;-68
2021/08/08 10:28:28;;;;;;;6.40;2.97;;;;;;;;;;5087545;28;20020;-69
2021/08/08 10:30:54;;;;;;;4.65;3.00;;;;;;;;;;5087555;28;20024;-69
2021/08/08 10:33:20;;;;;;;4.72;2.45;;;;;;;;;;5087477;28;20055;-69
2021/08/08 10:35:47;;;;;;;8.43;3.47;;;;;;;;;;5084604;28;20034;-69
2021/08/08 10:38:15;;;;;;;3.53;2.83;;;;;;;;;;5087272;28;20028;-69
2021/08/08 10:40:43;;;;;;;3.88;2.88;;;;;;;;;;5087317;28;20085;-69
2021/08/08 10:43:21;;;;;;;4.53;3.08;;;;;;;;;;5087457;28;20024;-69
2021/08/08 10:45:47;;;;;;;4.65;2.80;;;;;;;;;;5085379;28;20127;-69
2021/08/08 10:48:14;;;;;;;5.43;2.90;;;;;;;;;;5087284;28;20012;-70
2021/08/08 10:50:42;;;;;;;4.80;3.13;;;;;;;;;;5087109;28;20024;-69
2021/08/08 10:53:20;;;;;;;3.53;2.50;;;;;;;;;;5086692;28;20539;-69
2021/08/08 10:55:47;;;;;;;7.05;3.35;;;;;;;;;;5085979;28;20028;-69
2021/08/08 10:58:15;;;;;;;6.93;3.75;;;;;;;;;;5085402;28;20020;-69
2021/08/08 11:00:42;;;;;;;5.97;3.45;;;;;;;;;;5087016;28;20537;-69
2021/08/08 11:03:15;;;;;;;7.15;3.25;;;;;;;;;;5086676;28;20019;-69
2021/08/08 11:05:42;;;;;;;5.53;2.90;;;;;;;;;;5085628;28;20028;-70
2021/08/08 11:08:09;;;;;;;7.30;3.50;;;;;;;;;;5086878;28;20483;-70
2021/08/08 11:10:39;;;;;;;5.10;3.20;;;;;;;;;;5086870;28;20027;-69
2021/08/08 11:13:16;;;;;;;5.63;2.90;;;;;;;;;;5086729;28;20026;-69
2021/08/08 11:15:43;;;;;;;4.63;3.30;;;;;;;;;;5085139;28;20274;-69
2021/08/08 11:18:10;;;;;;;6.38;2.88;;;;;;;;;;5085637;28;20105;-69
2021/08/08 11:20:36;;;;;;;6.43;3.08;;;;;;;;;;5086538;28;20039;-69
2021/08/08 11:23:03;;;;;;;7.32;3.38;;;;;;;;;;5086705;28;20085;-69
2021/08/08 11:25:39;;;;;;;4.78;2.70;;;;;;;;;;5085145;28;20094;-69
2021/08/08 11:28:06;;;;;;;5.93;2.80;;;;;;;;;;5086496;28;20860;-70
2021/08/08 11:30:39;;;;;;;5.55;3.05;;;;;;;;;;5086188;28;20024;-69
2021/08/08 11:33:05;;;;;;;6.05;2.92;;;;;;;;;;5086272;28;20016;-69
2021/08/08 11:35:32;;;;;;;3.95;2.80;;;;;;;;;;5086418;28;20029;-69
2021/08/08 11:37:58;;;;;;;6.75;3.03;;;;;;;;;;5086298;28;20076;-70
2021/08/08 11:40:24;;;;;;;4.70;2.90;;;;;;;;;;5084701;28;20024;-69
2021/08/08 11:43:00;;;;;;;4.22;2.30;;;;;;;;;;5086039;28;20495;-69
2021/08/08 11:45:40;;;;;;;6.88;3.15;;;;;;;;;;5086079;28;20423;-69
2021/08/08 11:48:07;;;;;;;4.65;2.50;;;;;;;;;;5084542;28;20557;-69
2021/08/08 11:50:33;;;;;;;4.88;2.72;;;;;;;;;;5086126;28;20457;-69
2021/08/08 11:53:00;;;;;;;7.32;3.03;;;;;;;;;;5085665;28;20020;-69
2021/08/08 11:55:29;;;;;;;6.38;2.88;;;;;;;;;;5084738;28;20031;-69
2021/08/08 11:58:08;;;;;;;6.18;2.67;;;;;;;;;;5085762;28;20474;-70
2021/08/08 12:00:35;;;;;;;3.72;2.70;;;;;;;;;;5084045;28;20027;-69
2021/08/08 12:03:02;;;;;;;4.60;2.70;;;;;;;;;;5085695;28;20412;-69
2021/08/08 12:05:28;;;;;;;4.70;2.53;;;;;;;;;;5085719;28;20038;-69
2021/08/08 12:07:55;;;;;;;6.43;2.70;;;;;;;;;;5085374;28;20020;-69
2021/08/08 12:10:28;;;;;;;3.53;2.50;;;;;;;;;;5085650;28;20070;-69
2021/08/08 12:12:54;;;;;;;3.92;2.67;;;;;;;;;;5084305;28;20020;-70
2021/08/08 12:15:30;;;;;;;4.57;2.65;;;;;;;;;;5085674;28;20101;-69
2021/08/08 12:17:57;;;;;;;3.70;2.65;;;;;;;;;;5085245;28;20056;-69
2021/08/08 12:20:31;;;;;;;3.35;2.38;;;;;;;;;;5085230;28;20024;-69
2021/08/08 12:23:03;;;;;;;3.90;2.58;;;;;;;;;;5085134;28;20081;-71
2021/08/08 12:25:29;;;;;;;2.70;2.30;;;;;;;;;;5084802;28;20036;-70
2021/08/08 12:27:57;;;;;;;6.65;2.90;;;;;;;;;;5083596;28;20056;-69
2021/08/08 12:30:27;;;;;;;4.70;2.40;;;;;;;;;;5084221;28;20024;-69
2021/08/08 12:33:02;;;;;;;5.38;2.58;;;;;;;;;;5084748;28;20023;-69
2021/08/08 12:35:34;;;;;;;4.15;2.88;;;;;;;;;;5083640;28;20146;-69
2021/08/08 12:38:05;;;;;;;4.72;2.97;;;;;;;;;;5084931;28;20016;-69
2021/08/08 12:40:40;;;;;;;14.25;2.30;;;;;;;;;;5084915;28;20028;-70
2021/08/08 12:43:08;;;;;;;4.50;2.50;;;;;;;;;;5085033;28;20020;-69
2021/08/08 12:45:35;;;;;;;8.48;2.67;;;;;;;;;;5084749;28;20551;-69
2021/08/08 12:48:02;;;;;;;3.63;2.60;;;;;;;;;;5084563;28;20020;-69
2021/08/08 12:50:28;;;;;;;5.55;2.60;;;;;;;;;;5082856;28;20373;-69
2021/08/08 12:52:55;;;;;;;4.55;2.60;;;;;;;;;;5084143;28;20012;-69
2021/08/08 12:55:21;;;;;;;4.90;2.63;;;;;;;;;;5084906;28;20453;-70
2021/08/08 12:57:49;;;;;;;3.45;2.20;;;;;;;;;;5084501;28;20020;-69
2021/08/08 13:00:16;;;;;;;6.75;2.50;;;;;;;;;;5081420;28;20418;-69
2021/08/08 13:02:50;;;;;;;4.28;2.20;;;;;;;;;;5084214;28;20119;-69
2021/08/08 13:05:16;;;;;;;4.68;2.47;;;;;;;;;;5085133;28;20036;-69
2021/08/08 13:07:42;;;;;;;5.13;2.45;;;;;;;;;;5084331;28;20020;-69
2021/08/08 13:10:08;;;;;;;4.43;2.42;;;;;;;;;;5084326;28;20012;-70
2021/08/08 13:12:41;;;;;;;4.60;3.17;;;;;;;;;;5082670;28;20024;-69
2021/08/08 13:15:08;;;;;;;3.72;2.55;;;;;;;;;;5084146;28;20099;-69
2021/08/08 13:17:35;;;;;;;7.50;3.15;;;;;;;;;;5084155;28;20118;-69
2021/08/08 13:20:02;;;;;;;5.55;2.33;;;;;;;;;;5083978;28;20089;-69
2021/08/08 13:22:28;;;;;;;3.30;2.38;;;;;;;;;;5082813;28;20483;-69
2021/08/08 13:24:54;;;;;;;4.35;2.60;;;;;;;;;;5084680;28;20028;-70
2021/08/08 13:27:20;;;;;;;4.72;2.85;;;;;;;;;;5082835;28;20450;-69
2021/08/08 13:29:46;;;;;;;5.00;3.00;;;;;;;;;;5082521;28;20021;-69
2021/08/08 13:32:12;;;;;;;5.05;2.58;;;;;;;;;;5083940;28;20059;-69
2021/08/08 13:34:38;;;;;;;3.67;2.40;;;;;;;;;;5082941;28;20396;-69
2021/08/08 13:37:08;;;;;;;4.05;2.50;;;;;;;;;;5082454;28;20028;-70
2021/08/08 13:39:34;;;;;;;3.83;2.30;;;;;;;;;;5084009;28;20020;-69
2021/08/08 13:42:01;;;;;;;5.38;2.83;;;;;;;;;;5085197;28;20227;-69
2021/08/08 13:44:27;;;;;;;4.45;2.63;;;;;;;;;;5087821;28;20078;-69
2021/08/08 13:46:53;;;;;;;6.20;3.00;;;;;;;;;;5088174;28;20093;-69
2021/08/08 13:49:22;;;;;;;8.60;3.20;;;;;;;;;;5088259;28;20020;-69
2021/08/08 13:51:49;;;;;;;3.88;2.80;;;;;;;;;;5086583;28;20024;-69
2021/08/08 13:54:15;;;;;;;3.70;2.90;;;;;;;;;;5088389;28;20032;-69
2021/08/08 13:56:41;;;;;;;4.43;2.92;;;;;;;;;;5088140;28;20510;-69
2021/08/08 13:59:08;;;;;;;6.95;3.13;;;;;;;;;;5088349;28;20024;-69
2021/08/08 14:01:34;;;;;;;5.93;3.38;;;;;;;;;;5087795;28;20047;-69
2021/08/08 14:04:00;;;;;;;5.43;3.33;;;;;;;;;;5088366;28;20027;-69
2021/08/08 14:06:26;;;;;;;7.15;3.38;;;;;;;;;;5086372;28;20047;-69
2021/08/08 14:08:52;;;;;;;3.95;2.78;;;;;;;;;;5088091;28;20031;-70
2021/08/08 14:11:19;;;;;;;4.10;3.42;;;;;;;;;;5087445;28;20031;-69
2021/08/08 14:13:45;;;;;;;5.80;3.05;;;;;;;;;;5087277;28;20020;-69
2021/08/08 14:16:11;;;;;;;4.32;2.92;;;;;;;;;;5086035;28;20032;-69
2021/08/08 14:18:37;;;;;;;3.97;3.00;;;;;;;;;;5087819;28;20040;-69
2021/08/08 14:21:03;;;;;;;4.45;2.65;;;;;;;;;;5087658;28;20024;-69
2021/08/08 14:23:30;;;;;;;4.03;2.78;;;;;;;;;;5087057;28;20027;-69
2021/08/08 14:25:56;;;;;;;6.20;2.45;;;;;;;;;;5085974;28;20114;-69
2021/08/08 14:28:23;;;;;;;6.15;2.53;;;;;;;;;;5087886;28;20012;-69
2021/08/08 14:30:49;;;;;;;6.53;2.80;;;;;;;;;;5087186;28;20020;-70
2021/08/08 14:33:15;;;;;;;4.25;2.70;;;;;;;;;;5087497;28;20020;-69
2021/08/08 14:35:42;;;;;;;5.63;2.70;;;;;;;;;;5087215;28;20107;-69
2021/08/08 14:38:08;;;;;;;5.07;2.85;;;;;;;;;;5085777;28;20494;-69
2021/08/08 14:40:34;;;;;;;3.58;2.50;;;;;;;;;;5087314;28;20020;-70
2021/08/08 14:43:00;;;;;;;6.80;3.22;;;;;;;;;;5086578;28;20028;-69